Time;durP1;ratioP1;P1;durP2;ratioP2;P2;SDS_P1;SDS_P2;PMS_P1;PMS_P2;Temp;Humidity;BMP_temperature;BMP_pressure;BME280_temperature;BME280_humidity;BME280_pressure;Samples;Min_cycle;Max_cycle;Signal;HPM_P1;HPM_P2
2022/05/23 00:00:13;;;;;;;1.33;1.00;;;13.00;78.80;;;;;;604618;238;26555;-75
2022/05/23 00:02:40;;;;;;;1.20;1.10;;;13.00;78.80;;;;;;604475;237;26578;-74
2022/05/23 00:05:08;;;;;;;1.33;1.15;;;13.10;79.10;;;;;;604602;238;26833;-73
2022/05/23 00:07:35;;;;;;;1.40;1.30;;;13.00;79.50;;;;;;604464;238;26825;-75
2022/05/23 00:10:02;;;;;;;2.42;1.27;;;12.90;79.90;;;;;;604556;237;26574;-74
2022/05/23 00:12:30;;;;;;;3.15;1.33;;;12.90;80.80;;;;;;604514;238;26853;-74
2022/05/23 00:14:57;;;;;;;0.90;0.90;;;12.90;80.80;;;;;;604593;237;26840;-74
2022/05/23 00:17:24;;;;;;;1.27;1.17;;;12.90;80.80;;;;;;604610;238;26579;-70
2022/05/23 00:19:51;;;;;;;2.28;1.40;;;12.90;81.30;;;;;;604575;238;27103;-70
2022/05/23 00:22:19;;;;;;;3.05;0.95;;;12.90;83.20;;;;;;606241;235;26592;-70
2022/05/23 00:24:46;;;;;;;1.40;1.30;;;12.80;83.20;;;;;;605679;236;26663;-70
2022/05/23 00:27:14;;;;;;;1.00;1.00;;;12.80;82.10;;;;;;605380;237;26583;-70
2022/05/23 00:29:42;;;;;;;1.62;1.35;;;12.80;82.40;;;;;;605134;237;26600;-70
2022/05/23 00:37:16;;;;;;;1.30;1.20;;;12.60;83.30;;;;;;605190;237;26643;-70
2022/05/23 00:39:44;;;;;;;1.60;1.20;;;12.60;83.80;;;;;;604937;238;26593;-70
2022/05/23 00:44:44;;;;;;;1.75;1.00;;;12.60;83.90;;;;;;604809;237;26622;-70
2022/05/23 00:47:16;;;;;;;1.58;1.30;;;12.60;85.00;;;;;;604833;237;27001;-70
2022/05/23 00:49:43;;;;;;;2.67;0.95;;;12.60;85.00;;;;;;604643;238;26837;-70
2022/05/23 00:52:10;;;;;;;1.27;1.17;;;12.60;84.80;;;;;;604894;237;26574;-71
2022/05/23 00:54:39;;;;;;;1.10;1.00;;;12.60;84.70;;;;;;604661;234;27261;-68
2022/05/23 00:57:06;;;;;;;1.75;1.02;;;12.60;85.10;;;;;;604691;238;26587;-70
2022/05/23 00:59:33;;;;;;;1.10;1.00;;;12.50;84.90;;;;;;604608;237;26591;-70
2022/05/23 01:02:01;;;;;;;0.95;0.95;;;12.50;85.20;;;;;;604568;237;26591;-70
2022/05/23 01:04:28;;;;;;;1.45;1.02;;;12.50;86.10;;;;;;604596;237;26631;-70
2022/05/23 01:06:56;;;;;;;2.78;1.33;;;12.40;86.20;;;;;;604448;238;27266;-70
2022/05/23 01:09:25;;;;;;;1.25;1.20;;;12.40;86.30;;;;;;604478;237;26583;-70
2022/05/23 01:11:52;;;;;;;1.10;1.10;;;12.40;86.60;;;;;;604373;232;26586;-70
2022/05/23 01:14:20;;;;;;;1.55;0.90;;;12.30;87.00;;;;;;604566;234;26624;-70
2022/05/23 01:16:48;;;;;;;1.77;1.50;;;12.30;87.50;;;;;;590611;242;26604;-69
2022/05/23 01:19:16;;;;;;;2.50;1.15;;;12.30;88.20;;;;;;579889;248;26727;-69
2022/05/23 01:21:53;;;;;;;1.27;1.17;;;12.30;87.60;;;;;;579852;248;26702;-69
2022/05/23 01:24:26;;;;;;;0.85;0.85;;;12.30;88.00;;;;;;579829;248;26709;-69
2022/05/23 01:26:53;;;;;;;2.03;1.10;;;12.30;88.00;;;;;;590342;243;26891;-69
2022/05/23 01:29:20;;;;;;;1.20;1.10;;;12.30;89.40;;;;;;590438;242;26606;-69
2022/05/23 01:31:48;;;;;;;1.77;1.35;;;12.30;88.40;;;;;;580117;246;26897;-69
2022/05/23 01:34:15;;;;;;;1.40;1.12;;;12.30;89.20;;;;;;581245;246;26667;-69
2022/05/23 01:36:42;;;;;;;0.80;0.80;;;12.20;89.10;;;;;;580733;248;26877;-69
2022/05/23 01:39:09;;;;;;;1.40;1.30;;;12.20;89.30;;;;;;580569;241;26697;-69
2022/05/23 01:41:38;;;;;;;1.10;1.00;;;12.20;89.60;;;;;;580379;246;27222;-69
2022/05/23 01:44:04;;;;;;;1.12;1.12;;;12.20;89.60;;;;;;580177;246;26632;-69
2022/05/23 01:46:31;;;;;;;1.00;1.00;;;12.20;89.40;;;;;;580318;248;26647;-69
2022/05/23 01:48:58;;;;;;;2.65;1.20;;;12.20;89.50;;;;;;580361;248;26875;-69
2022/05/23 01:51:26;;;;;;;1.75;0.98;;;12.20;89.40;;;;;;580063;247;26633;-69
2022/05/23 01:53:53;;;;;;;1.87;1.00;;;12.20;90.00;;;;;;580162;248;26977;-69
2022/05/23 01:56:20;;;;;;;1.58;1.35;;;12.20;90.10;;;;;;580149;248;26617;-69
2022/05/23 02:01:20;;;;;;;1.02;0.90;;;12.10;90.60;;;;;;580088;247;26875;-69
2022/05/23 02:03:48;;;;;;;0.90;0.90;;;12.10;90.60;;;;;;580104;246;26674;-70
2022/05/23 02:06:16;;;;;;;1.58;0.90;;;12.10;90.30;;;;;;590821;242;26689;-69
2022/05/23 02:08:42;;;;;;;1.23;1.12;;;12.00;90.60;;;;;;579958;247;26867;-69
2022/05/23 02:11:09;;;;;;;1.02;1.00;;;12.00;90.50;;;;;;579865;248;26664;-69
2022/05/23 02:13:37;;;;;;;1.12;1.00;;;12.00;90.60;;;;;;590540;239;26863;-69
2022/05/23 02:16:04;;;;;;;1.90;1.17;;;12.00;90.70;;;;;;590486;242;26614;-69
2022/05/23 02:18:32;;;;;;;1.33;1.00;;;11.90;90.90;;;;;;579938;248;26697;-69
2022/05/23 02:21:00;;;;;;;1.33;1.25;;;11.90;91.10;;;;;;579835;247;26670;-69
2022/05/23 02:23:28;;;;;;;1.37;1.10;;;11.90;91.10;;;;;;579845;247;26704;-69
2022/05/23 02:25:55;;;;;;;0.80;0.80;;;11.90;91.10;;;;;;579875;247;26723;-69
2022/05/23 02:28:22;;;;;;;1.35;1.25;;;11.90;91.00;;;;;;579897;247;26689;-69
2022/05/23 02:30:49;;;;;;;1.20;1.10;;;11.90;91.00;;;;;;579902;247;26900;-69
2022/05/23 02:33:16;;;;;;;1.08;1.00;;;11.90;91.20;;;;;;579844;247;26708;-69
2022/05/23 02:35:44;;;;;;;1.48;0.95;;;11.80;91.30;;;;;;579824;247;26908;-69
2022/05/23 02:38:11;;;;;;;0.90;0.90;;;11.80;91.30;;;;;;579816;247;26679;-69
2022/05/23 02:40:38;;;;;;;0.90;0.90;;;11.70;91.50;;;;;;579861;247;26988;-69
2022/05/23 02:43:05;;;;;;;2.05;1.02;;;11.80;91.50;;;;;;579786;246;26705;-69
2022/05/23 02:45:33;;;;;;;1.17;1.00;;;11.70;91.70;;;;;;581354;247;26664;-69
2022/05/23 02:48:01;;;;;;;1.02;1.00;;;11.60;92.10;;;;;;580843;247;27319;-69
2022/05/23 02:50:28;;;;;;;1.30;1.20;;;11.70;92.10;;;;;;580629;248;27217;-69
2022/05/23 02:52:55;;;;;;;0.90;0.90;;;11.60;92.20;;;;;;580493;246;26692;-69
2022/05/23 02:55:22;;;;;;;1.20;1.10;;;11.60;92.80;;;;;;580381;246;27346;-69
2022/05/23 02:57:50;;;;;;;1.23;1.12;;;11.50;92.70;;;;;;580361;248;26622;-69
2022/05/23 03:00:19;;;;;;;0.98;0.98;;;11.60;93.00;;;;;;580348;248;26637;-69
2022/05/23 03:05:19;;;;;;;1.23;1.12;;;11.50;93.00;;;;;;580122;247;26651;-69
2022/05/23 03:07:47;;;;;;;0.90;0.90;;;11.50;93.50;;;;;;590811;242;26581;-70
2022/05/23 03:10:15;;;;;;;0.98;0.93;;;11.40;93.80;;;;;;580137;248;26598;-70
2022/05/23 03:12:45;;;;;;;1.20;1.10;;;11.50;93.50;;;;;;580058;247;26585;-70
2022/05/23 03:15:11;;;;;;;1.25;1.02;;;11.50;93.50;;;;;;580053;245;26886;-70
2022/05/23 03:17:38;;;;;;;1.27;0.95;;;11.50;93.90;;;;;;580165;248;26648;-70
2022/05/23 03:20:06;;;;;;;1.10;1.10;;;11.50;93.70;;;;;;590737;242;26665;-69
2022/05/23 03:27:39;;;;;;;1.20;1.10;;;11.50;93.90;;;;;;580261;248;26913;-69
2022/05/23 03:30:07;;;;;;;1.23;1.12;;;11.60;93.60;;;;;;579968;248;26679;-69
2022/05/23 03:32:35;;;;;;;1.08;1.05;;;11.60;93.60;;;;;;579807;248;26684;-69
2022/05/23 03:35:02;;;;;;;1.02;1.02;;;11.60;93.60;;;;;;579868;248;26886;-69
2022/05/23 03:37:29;;;;;;;1.10;1.10;;;11.60;93.70;;;;;;590748;243;26597;-69
2022/05/23 03:39:57;;;;;;;1.05;0.95;;;11.60;93.70;;;;;;579860;246;26673;-69
2022/05/23 03:42:25;;;;;;;1.05;1.05;;;11.70;93.60;;;;;;579843;248;26668;-69
2022/05/23 03:44:53;;;;;;;1.00;1.00;;;11.70;93.50;;;;;;579854;248;26796;-69
2022/05/23 03:47:20;;;;;;;1.50;1.27;;;11.70;93.50;;;;;;579880;247;26697;-70
2022/05/23 03:49:48;;;;;;;1.23;1.15;;;11.80;93.50;;;;;;579903;247;26706;-70
2022/05/23 03:52:16;;;;;;;1.65;1.17;;;11.80;93.50;;;;;;579797;247;26898;-70
2022/05/23 03:54:43;;;;;;;2.37;1.12;;;11.80;93.30;;;;;;579921;246;26684;-70
2022/05/23 03:57:10;;;;;;;1.02;1.02;;;11.80;93.70;;;;;;581304;246;26976;-70
2022/05/23 03:59:37;;;;;;;1.10;0.95;;;11.90;93.70;;;;;;580858;248;26658;-70
2022/05/23 04:02:05;;;;;;;1.50;1.40;;;11.90;93.70;;;;;;580559;248;26662;-69
2022/05/23 04:04:32;;;;;;;1.23;1.12;;;11.90;93.60;;;;;;580469;248;26935;-69
2022/05/23 04:07:00;;;;;;;1.60;1.50;;;11.90;93.30;;;;;;580430;247;26600;-70
2022/05/23 04:09:27;;;;;;;1.10;1.10;;;12.00;93.40;;;;;;591115;242;26636;-70
2022/05/23 04:11:55;;;;;;;2.22;1.17;;;12.00;93.00;;;;;;580471;247;26636;-69
2022/05/23 04:14:23;;;;;;;1.17;1.17;;;12.10;92.80;;;;;;590959;240;26605;-70
2022/05/23 04:16:51;;;;;;;1.90;1.20;;;12.20;92.50;;;;;;580208;247;26605;-70
2022/05/23 04:19:18;;;;;;;1.50;1.40;;;12.20;92.60;;;;;;580119;248;26647;-70
2022/05/23 04:21:46;;;;;;;2.65;1.50;;;12.30;92.50;;;;;;580113;247;26883;-70
2022/05/23 04:24:13;;;;;;;1.40;1.30;;;12.30;92.30;;;;;;590748;242;26689;-70
2022/05/23 04:26:40;;;;;;;1.48;1.37;;;12.40;92.50;;;;;;590765;243;26868;-70
2022/05/23 04:29:08;;;;;;;0.80;0.80;;;12.60;92.00;;;;;;580101;247;26644;-70
2022/05/23 04:31:36;;;;;;;1.52;1.40;;;12.70;91.80;;;;;;579867;247;26632;-70
2022/05/23 04:36:37;;;;;;;1.40;1.30;;;12.90;90.70;;;;;;579800;247;26688;-70
2022/05/23 04:39:07;;;;;;;1.15;1.15;;;13.00;90.30;;;;;;579849;247;26661;-70
2022/05/23 04:41:33;;;;;;;1.10;1.10;;;13.10;90.00;;;;;;579829;248;26743;-70
2022/05/23 04:44:01;;;;;;;1.15;1.15;;;13.20;89.70;;;;;;579836;247;26707;-70
2022/05/23 04:46:29;;;;;;;1.20;1.10;;;13.40;88.90;;;;;;579857;247;26679;-70
2022/05/23 04:51:30;;;;;;;1.45;1.35;;;13.60;88.00;;;;;;579908;247;26930;-69
2022/05/23 04:53:57;;;;;;;1.40;1.30;;;13.70;86.70;;;;;;579866;248;26670;-69
2022/05/23 04:56:24;;;;;;;1.50;1.40;;;13.90;86.10;;;;;;579741;248;26905;-69
2022/05/23 04:58:52;;;;;;;1.73;1.20;;;14.20;85.20;;;;;;590503;242;26617;-70
2022/05/23 05:01:21;;;;;;;1.37;1.27;;;14.40;83.50;;;;;;579780;247;26690;-70
2022/05/23 05:03:48;;;;;;;1.30;1.30;;;14.50;83.80;;;;;;579785;248;26710;-69
2022/05/23 05:06:16;;;;;;;1.30;1.20;;;14.50;82.30;;;;;;590610;241;26581;-69
2022/05/23 05:08:43;;;;;;;1.42;1.33;;;14.50;82.30;;;;;;581259;247;26588;-69
2022/05/23 05:11:10;;;;;;;1.42;1.33;;;14.60;82.60;;;;;;580900;246;26647;-69
2022/05/23 05:13:38;;;;;;;1.58;1.30;;;14.60;81.40;;;;;;580634;246;26925;-69
2022/05/23 05:16:05;;;;;;;1.23;1.23;;;14.70;81.30;;;;;;580482;247;26663;-69
2022/05/23 05:18:33;;;;;;;1.00;1.00;;;14.80;80.90;;;;;;580360;248;26666;-69
2022/05/23 05:21:02;;;;;;;1.80;1.70;;;14.90;80.70;;;;;;591117;243;26888;-70
2022/05/23 05:23:30;;;;;;;2.03;1.92;;;14.90;80.70;;;;;;591028;243;26842;-69
2022/05/23 05:25:57;;;;;;;1.75;1.52;;;14.90;80.70;;;;;;580169;248;26625;-69
2022/05/23 05:28:25;;;;;;;1.65;1.55;;;15.00;80.90;;;;;;580152;248;26832;-69
2022/05/23 05:30:56;;;;;;;1.58;1.48;;;14.90;81.10;;;;;;580139;247;26886;-70
2022/05/23 05:33:24;;;;;;;1.40;1.30;;;15.00;80.40;;;;;;579857;246;26657;-69
2022/05/23 05:35:52;;;;;;;1.85;1.40;;;15.10;78.70;;;;;;590359;243;26646;-69
2022/05/23 05:38:21;;;;;;;1.00;1.00;;;15.00;79.50;;;;;;590954;243;26650;-69
2022/05/23 05:40:48;;;;;;;1.65;1.55;;;15.00;79.60;;;;;;590917;243;26648;-69
2022/05/23 05:43:17;;;;;;;1.60;1.50;;;15.10;78.50;;;;;;590624;243;26890;-69
2022/05/23 05:45:44;;;;;;;1.33;1.20;;;15.20;77.40;;;;;;590139;243;26622;-69
2022/05/23 05:48:12;;;;;;;1.73;1.62;;;15.30;76.60;;;;;;590162;243;26605;-69
2022/05/23 05:50:39;;;;;;;1.35;1.33;;;15.30;76.60;;;;;;579649;247;26710;-69
2022/05/23 05:53:09;;;;;;;1.80;1.70;;;15.40;76.30;;;;;;590348;242;26710;-69
2022/05/23 05:55:36;;;;;;;1.62;1.52;;;15.50;75.20;;;;;;579596;247;26676;-69
2022/05/23 05:58:03;;;;;;;1.65;1.55;;;15.70;75.80;;;;;;590466;243;26628;-69
2022/05/23 06:00:30;;;;;;;1.30;1.30;;;15.70;75.40;;;;;;579826;246;26640;-69
2022/05/23 06:02:58;;;;;;;1.12;1.12;;;16.00;73.40;;;;;;579827;246;26924;-69
2022/05/23 06:05:25;;;;;;;1.23;1.17;;;16.00;72.90;;;;;;579811;247;26909;-69
2022/05/23 06:11:23;;;;;;;1.12;1.12;;;16.30;73.90;;;;;;579863;248;26704;-69
2022/05/23 06:12:59;;;;;;;1.55;1.45;;;16.60;71.10;;;;;;578405;248;26729;-69
2022/05/23 06:15:27;;;;;;;1.42;1.33;;;16.70;70.50;;;;;;590494;243;26605;-69
2022/05/23 06:17:55;;;;;;;1.23;1.23;;;16.60;70.20;;;;;;579989;246;26657;-69
2022/05/23 06:20:23;;;;;;;1.12;1.10;;;16.80;69.30;;;;;;581334;246;26876;-69
2022/05/23 06:22:50;;;;;;;1.77;1.40;;;16.90;69.50;;;;;;580812;242;26609;-69
2022/05/23 06:25:18;;;;;;;1.50;1.40;;;17.00;68.80;;;;;;580588;246;26725;-69
2022/05/23 06:27:46;;;;;;;1.70;1.60;;;17.00;68.90;;;;;;580573;246;26692;-69
2022/05/23 06:30:14;;;;;;;1.50;1.40;;;17.10;66.70;;;;;;580352;247;26862;-69
2022/05/23 06:32:41;;;;;;;1.60;1.50;;;17.10;67.40;;;;;;580306;247;27002;-69
2022/05/23 06:35:08;;;;;;;1.58;1.48;;;17.20;66.60;;;;;;580383;247;26630;-68
2022/05/23 06:37:35;;;;;;;1.60;1.50;;;17.30;66.80;;;;;;580176;241;26643;-69
2022/05/23 06:40:04;;;;;;;1.35;1.25;;;17.30;65.20;;;;;;591102;237;27051;-68
2022/05/23 06:42:32;;;;;;;1.58;1.48;;;17.50;64.20;;;;;;580117;248;26616;-69
2022/05/23 06:45:00;;;;;;;2.47;1.50;;;17.50;64.10;;;;;;580008;248;26651;-69
2022/05/23 06:47:27;;;;;;;1.60;1.50;;;17.60;64.30;;;;;;590746;242;26925;-69
2022/05/23 06:49:55;;;;;;;1.45;1.35;;;17.70;62.30;;;;;;580094;248;26625;-69
2022/05/23 06:52:23;;;;;;;1.58;1.23;;;17.90;61.60;;;;;;580096;247;26625;-69
2022/05/23 06:54:51;;;;;;;1.30;1.20;;;17.90;61.30;;;;;;590654;242;26803;-73
2022/05/23 06:57:18;;;;;;;1.45;1.35;;;17.90;61.30;;;;;;579896;247;26677;-71
2022/05/23 06:59:46;;;;;;;1.92;1.30;;;18.10;61.20;;;;;;581049;244;26692;-71
2022/05/23 07:02:14;;;;;;;1.67;1.58;;;18.40;60.80;;;;;;580978;247;26673;-71
2022/05/23 07:12:20;;;;;;;1.40;1.27;;;18.70;59.60;;;;;;603288;237;26577;-77
2022/05/23 07:14:47;;;;;;;1.40;1.30;;;18.70;59.70;;;;;;592320;242;26882;-74
2022/05/23 07:17:16;;;;;;;1.50;1.40;;;18.80;60.40;;;;;;593628;239;26608;-75
2022/05/23 07:19:43;;;;;;;1.20;1.10;;;19.00;58.70;;;;;;591253;239;26660;-78
2022/05/23 07:22:11;;;;;;;2.12;1.33;;;19.00;58.50;;;;;;582043;247;26704;-75
2022/05/23 07:24:39;;;;;;;1.60;1.50;;;19.10;58.10;;;;;;597016;240;26697;-75
2022/05/23 07:27:07;;;;;;;2.33;1.42;;;19.10;58.10;;;;;;580564;244;26682;-74
2022/05/23 07:29:34;;;;;;;2.03;1.27;;;19.00;58.00;;;;;;582204;244;26688;-74
2022/05/23 07:32:01;;;;;;;1.27;1.20;;;19.00;57.80;;;;;;587203;244;26588;-74
2022/05/23 07:34:29;;;;;;;1.95;1.37;;;19.40;59.20;;;;;;605899;233;27323;-76
2022/05/23 07:36:56;;;;;;;1.37;1.30;;;19.40;59.30;;;;;;605404;237;26889;-71
2022/05/23 07:39:24;;;;;;;1.33;1.23;;;19.60;57.50;;;;;;603858;237;26670;-71
2022/05/23 07:41:51;;;;;;;1.77;1.40;;;19.70;56.90;;;;;;604012;237;26863;-71
2022/05/23 07:44:18;;;;;;;2.28;1.40;;;19.70;57.00;;;;;;608522;236;26614;-73
2022/05/23 07:46:45;;;;;;;2.75;1.20;;;19.80;56.70;;;;;;606684;235;26869;-75
2022/05/23 07:49:12;;;;;;;1.60;1.33;;;19.90;56.50;;;;;;608365;235;26694;-72
2022/05/23 07:51:39;;;;;;;2.00;1.27;;;20.10;55.90;;;;;;608086;235;26624;-73
2022/05/23 08:01:48;;;;;;;3.05;1.70;;;19.90;56.50;;;;;;602231;237;26598;-73
2022/05/23 08:04:14;;;;;;;1.95;1.55;;;20.00;55.80;;;;;;608475;236;26677;-74
2022/05/23 08:06:43;;;;;;;2.22;1.73;;;20.00;55.80;;;;;;612482;234;26587;-73
2022/05/23 08:09:11;;;;;;;1.70;1.58;;;20.10;56.40;;;;;;608075;234;26680;-72
2022/05/23 08:11:39;;;;;;;1.40;1.30;;;20.00;56.10;;;;;;604222;236;26920;-73
2022/05/23 08:14:07;;;;;;;2.83;1.50;;;20.30;54.70;;;;;;601524;237;26649;-74
2022/05/23 08:16:35;;;;;;;2.17;1.48;;;20.40;55.60;;;;;;606072;235;26647;-72
2022/05/23 08:19:02;;;;;;;2.12;1.60;;;20.40;55.60;;;;;;605243;235;26573;-75
2022/05/23 08:21:29;;;;;;;1.42;1.30;;;20.30;54.90;;;;;;601445;237;26622;-73
2022/05/23 08:23:56;;;;;;;19.42;4.28;;;20.40;55.00;;;;;;601993;237;26909;-72
2022/05/23 08:26:25;;;;;;;9.98;3.08;;;20.40;55.00;;;;;;606217;235;26590;-73
2022/05/23 08:28:51;;;;;;;33.28;8.18;;;20.40;54.00;;;;;;606278;235;26940;-71
2022/05/23 08:31:18;;;;;;;25.90;6.05;;;20.40;54.40;;;;;;609737;235;26561;-71
2022/05/23 08:33:46;;;;;;;1.85;1.37;;;20.40;53.60;;;;;;610103;234;26871;-71
2022/05/23 08:36:12;;;;;;;6.12;2.45;;;20.50;54.00;;;;;;606038;236;26572;-73
2022/05/23 08:38:39;;;;;;;2.25;1.40;;;20.60;53.60;;;;;;605931;231;26817;-73
2022/05/23 08:41:11;;;;;;;1.52;1.20;;;20.70;53.70;;;;;;603668;236;26574;-77
2022/05/23 08:43:44;;;;;;;2.87;1.30;;;20.70;53.10;;;;;;605647;235;26654;-72
2022/05/23 08:46:11;;;;;;;1.75;1.52;;;20.80;53.30;;;;;;601940;235;26588;-73
2022/05/23 08:48:42;;;;;;;1.30;1.20;;;20.80;52.10;;;;;;603698;235;26830;-72
2022/05/23 08:51:11;;;;;;;1.10;1.02;;;20.90;52.50;;;;;;603228;237;27233;-74
2022/05/23 08:53:53;;;;;;;3.10;1.70;;;20.90;52.80;;;;;;605430;232;26905;-73
2022/05/23 08:56:27;;;;;;;1.40;1.30;;;20.90;53.00;;;;;;605870;233;26599;-70
2022/05/23 08:58:55;;;;;;;1.62;1.37;;;20.90;52.00;;;;;;604842;235;26640;-71
2022/05/23 09:01:28;;;;;;;1.00;0.90;;;20.90;51.50;;;;;;605234;235;26585;-66
2022/05/23 09:04:05;;;;;;;1.77;1.35;;;21.00;52.10;;;;;;608953;236;26903;-68
2022/05/23 09:06:34;;;;;;;1.50;1.10;;;21.10;51.90;;;;;;602296;234;26599;-67
2022/05/23 09:09:01;;;;;;;1.33;1.15;;;21.30;49.90;;;;;;607356;235;26849;-67
2022/05/23 09:11:32;;;;;;;3.05;1.08;;;21.30;49.80;;;;;;610020;235;26955;-68
2022/05/23 09:13:59;;;;;;;1.90;1.20;;;21.40;50.40;;;;;;611761;234;26621;-67
2022/05/23 09:16:28;;;;;;;1.35;1.27;;;21.60;49.60;;;;;;606817;236;26583;-68
2022/05/23 09:18:56;;;;;;;1.08;1.05;;;21.60;49.10;;;;;;604553;235;26578;-67
2022/05/23 09:22:12;;;;;;;1.37;1.08;;;21.70;48.60;;;;;;603019;236;26847;-67
2022/05/23 09:23:51;;;;;;;1.35;1.25;;;21.80;48.80;;;;;;602110;234;26623;-67
2022/05/23 09:26:21;;;;;;;1.10;1.10;;;21.80;48.70;;;;;;602793;236;26638;-72
2022/05/23 09:28:51;;;;;;;1.35;1.00;;;22.00;48.50;;;;;;603361;236;26609;-72
2022/05/23 09:31:27;;;;;;;1.10;1.10;;;22.10;47.90;;;;;;607577;230;26838;-68
2022/05/23 09:33:54;;;;;;;1.92;0.88;;;22.10;47.90;;;;;;610059;234;26888;-68
2022/05/23 09:36:27;;;;;;;1.75;1.30;;;22.30;48.40;;;;;;606228;236;26575;-69
2022/05/23 09:38:55;;;;;;;1.35;1.20;;;22.30;47.20;;;;;;610793;235;26596;-69
2022/05/23 09:41:28;;;;;;;1.20;1.10;;;22.40;47.00;;;;;;609728;236;26581;-69
2022/05/23 09:49:16;;;;;;;0.90;0.90;;;22.50;46.20;;;;;;603849;235;26915;-68
2022/05/23 09:51:54;;;;;;;0.85;0.82;;;22.50;45.30;;;;;;608973;235;26638;-73
2022/05/23 09:54:23;;;;;;;0.80;0.80;;;22.80;46.90;;;;;;605170;234;26605;-69
2022/05/23 09:56:49;;;;;;;1.12;1.00;;;22.90;45.30;;;;;;605267;237;26913;-68
2022/05/23 09:59:19;;;;;;;1.42;1.00;;;22.90;44.60;;;;;;605152;234;26562;-69
2022/05/23 10:01:47;;;;;;;0.90;0.90;;;23.10;44.70;;;;;;607083;235;26650;-69
2022/05/23 10:04:18;;;;;;;1.10;1.00;;;23.30;44.70;;;;;;605122;236;26660;-68
2022/05/23 10:06:50;;;;;;;0.68;0.68;;;23.30;44.70;;;;;;604570;238;26673;-69
2022/05/23 10:09:21;;;;;;;1.10;1.00;;;23.50;44.20;;;;;;604066;235;26633;-68
2022/05/23 10:11:52;;;;;;;0.98;0.85;;;23.60;43.80;;;;;;601748;232;26626;-68
2022/05/23 10:14:20;;;;;;;0.80;0.80;;;23.70;44.20;;;;;;602757;237;26579;-68
2022/05/23 10:16:48;;;;;;;1.33;1.23;;;23.60;44.00;;;;;;607485;236;26583;-68
2022/05/23 10:19:23;;;;;;;0.80;0.80;;;23.80;45.30;;;;;;604095;236;26603;-68
2022/05/23 10:21:51;;;;;;;0.90;0.90;;;24.00;45.90;;;;;;604179;238;26903;-68
2022/05/23 10:24:32;;;;;;;0.80;0.80;;;24.00;44.60;;;;;;601707;235;26630;-68
2022/05/23 10:27:00;;;;;;;0.70;0.70;;;24.10;45.20;;;;;;603117;238;26640;-68
2022/05/23 10:29:36;;;;;;;0.90;0.90;;;23.90;43.70;;;;;;603413;238;26642;-68
2022/05/23 10:32:06;;;;;;;0.98;0.77;;;23.90;44.10;;;;;;611311;234;26633;-68
2022/05/23 10:34:48;;;;;;;1.37;0.80;;;23.90;44.10;;;;;;602730;233;26616;-68
2022/05/23 10:37:15;;;;;;;0.93;0.93;;;23.90;43.90;;;;;;600390;239;26886;-68
2022/05/23 10:42:18;;;;;;;1.02;0.93;;;24.20;43.40;;;;;;603461;235;26661;-68
2022/05/23 10:45:02;;;;;;;1.00;1.00;;;24.10;43.30;;;;;;602272;238;26888;-70
2022/05/23 10:47:30;;;;;;;1.17;1.08;;;24.10;43.80;;;;;;597514;239;26974;-68
2022/05/23 10:50:18;;;;;;;1.20;1.10;;;24.20;43.40;;;;;;608656;235;26575;-68
2022/05/23 10:52:46;;;;;;;1.33;1.23;;;24.40;43.00;;;;;;605604;236;26741;-67
2022/05/23 10:55:18;;;;;;;0.80;0.80;;;24.40;43.30;;;;;;604082;235;27072;-72
2022/05/23 10:57:52;;;;;;;1.20;1.12;;;24.50;42.80;;;;;;609819;235;26594;-73
2022/05/23 11:00:19;;;;;;;0.80;0.80;;;24.70;45.70;;;;;;603835;236;27001;-69
2022/05/23 11:02:52;;;;;;;1.30;0.98;;;24.80;42.70;;;;;;603376;236;26631;-68
2022/05/23 11:05:22;;;;;;;0.82;0.82;;;24.80;44.00;;;;;;608292;233;26609;-67
2022/05/23 11:07:49;;;;;;;0.95;0.90;;;24.90;42.30;;;;;;610555;235;26617;-67
2022/05/23 11:10:24;;;;;;;1.50;0.90;;;24.60;41.70;;;;;;609979;235;26613;-69
2022/05/23 11:12:56;;;;;;;2.28;0.90;;;24.60;41.70;;;;;;610023;235;26554;-69
2022/05/23 11:15:44;;;;;;;1.08;0.90;;;24.70;42.80;;;;;;610354;235;26796;-70
2022/05/23 11:18:20;;;;;;;0.60;0.60;;;24.70;41.80;;;;;;609075;236;26567;-70
2022/05/23 11:20:47;;;;;;;0.85;0.85;;;24.70;41.40;;;;;;610397;236;26549;-69
2022/05/23 11:23:23;;;;;;;1.60;1.52;;;25.00;41.80;;;;;;610547;236;26587;-69
2022/05/23 11:25:54;;;;;;;1.40;1.08;;;25.50;41.00;;;;;;610539;236;26596;-69
2022/05/23 11:33:41;;;;;;;0.80;0.80;;;25.50;41.00;;;;;;610187;236;26652;-70
2022/05/23 11:36:09;;;;;;;0.98;0.98;;;25.50;41.00;;;;;;610215;236;26610;-70
2022/05/23 11:38:42;;;;;;;0.70;0.70;;;25.70;40.40;;;;;;604209;235;27419;-70
2022/05/23 11:41:09;;;;;;;0.90;0.90;;;25.70;42.20;;;;;;604395;234;26555;-69
2022/05/23 11:43:37;;;;;;;0.90;0.90;;;25.80;40.50;;;;;;604041;236;26650;-69
2022/05/23 11:46:05;;;;;;;0.90;0.90;;;25.90;40.50;;;;;;605812;235;26637;-69
2022/05/23 11:48:45;;;;;;;0.95;0.88;;;25.90;40.50;;;;;;603609;237;26606;-70
2022/05/23 11:51:36;;;;;;;0.90;0.90;;;25.80;40.00;;;;;;610080;235;26823;-69
2022/05/23 11:54:21;;;;;;;2.83;1.40;;;26.10;40.30;;;;;;604944;236;27368;-68
2022/05/23 11:57:15;;;;;;;0.80;0.80;;;26.20;42.00;;;;;;604107;235;26677;-70
2022/05/23 11:59:59;;;;;;;1.52;1.10;;;26.50;40.20;;;;;;602361;238;26676;-70
2022/05/23 12:02:27;;;;;;;2.05;1.80;;;26.30;40.00;;;;;;602095;238;26647;-73
2022/05/23 12:05:12;;;;;;;1.80;0.95;;;26.50;40.40;;;;;;603649;235;26715;-70
2022/05/23 12:07:55;;;;;;;0.82;0.82;;;26.70;41.30;;;;;;601309;239;26659;-71
2022/05/23 12:10:38;;;;;;;0.88;0.88;;;26.90;39.70;;;;;;606755;236;26653;-72
2022/05/23 12:13:26;;;;;;;2.65;1.30;;;26.90;39.70;;;;;;608519;235;26888;-71
2022/05/23 12:15:53;;;;;;;0.80;0.80;;;27.10;39.80;;;;;;603880;236;26831;-70
2022/05/23 12:18:32;;;;;;;10.90;4.22;;;27.00;39.40;;;;;;603782;232;26636;-67
2022/05/23 12:20:59;;;;;;;0.70;0.70;;;26.50;39.50;;;;;;607018;234;26846;-68
2022/05/23 12:23:32;;;;;;;0.82;0.80;;;26.20;40.20;;;;;;613097;234;26576;-67
2022/05/23 12:26:25;;;;;;;0.90;0.90;;;26.20;39.50;;;;;;612939;234;26641;-67
2022/05/23 12:28:57;;;;;;;7.25;2.33;;;26.20;39.60;;;;;;610025;235;26638;-68
2022/05/23 12:31:27;;;;;;;0.90;0.90;;;26.50;39.00;;;;;;603755;238;26592;-68
2022/05/23 12:34:08;;;;;;;1.52;1.42;;;27.00;39.90;;;;;;610504;235;26611;-67
2022/05/23 12:36:37;;;;;;;7.65;3.42;;;28.10;37.90;;;;;;612580;235;26644;-67
2022/05/23 12:39:07;;;;;;;1.50;1.20;;;28.70;38.10;;;;;;612498;235;26596;-67
2022/05/23 12:41:46;;;;;;;3.90;1.87;;;28.60;38.00;;;;;;611226;235;26567;-68
2022/05/23 12:44:35;;;;;;;0.73;0.73;;;29.40;37.50;;;;;;612467;235;26599;-67
2022/05/23 12:47:16;;;;;;;1.02;1.00;;;29.60;37.00;;;;;;608703;235;26608;-68
2022/05/23 12:49:58;;;;;;;0.85;0.80;;;29.40;38.40;;;;;;612339;235;26601;-67
2022/05/23 12:52:43;;;;;;;0.82;0.80;;;29.50;36.60;;;;;;612158;235;26597;-67
2022/05/23 12:55:28;;;;;;;1.12;1.08;;;29.70;37.00;;;;;;610802;235;26621;-67
2022/05/23 12:58:31;;;;;;;1.02;0.90;;;29.50;36.80;;;;;;611975;235;26618;-67
2022/05/23 13:01:03;;;;;;;1.08;0.90;;;29.30;36.90;;;;;;594006;235;26602;-67
2022/05/23 13:03:32;;;;;;;1.75;1.10;;;29.10;36.20;;;;;;612266;235;26639;-67
2022/05/23 13:06:01;;;;;;;1.00;0.88;;;29.20;36.60;;;;;;611893;235;26634;-67
2022/05/23 13:08:44;;;;;;;0.80;0.80;;;29.60;36.00;;;;;;611601;235;27150;-67
2022/05/23 13:11:12;;;;;;;0.95;0.82;;;29.60;36.00;;;;;;607418;235;26709;-67
2022/05/23 13:13:40;;;;;;;1.45;1.00;;;29.50;36.20;;;;;;606276;235;26867;-68
2022/05/23 13:16:13;;;;;;;1.00;1.00;;;28.80;35.40;;;;;;602180;235;26849;-64
2022/05/23 13:23:46;;;;;;;2.47;1.10;;;28.70;35.90;;;;;;609494;235;26866;-64
2022/05/23 13:26:14;;;;;;;1.08;1.00;;;29.90;36.10;;;;;;603437;237;26590;-65
2022/05/23 13:28:42;;;;;;;1.42;1.12;;;30.90;33.90;;;;;;604629;236;26820;-64
2022/05/23 13:31:20;;;;;;;1.00;1.00;;;31.00;33.40;;;;;;605797;234;26630;-63
2022/05/23 13:33:48;;;;;;;2.72;1.05;;;31.00;33.40;;;;;;610842;234;27313;-64
2022/05/23 13:36:15;;;;;;;1.10;1.00;;;30.90;32.90;;;;;;604520;232;26803;-65
2022/05/23 13:38:43;;;;;;;1.90;0.95;;;31.70;33.60;;;;;;608855;236;26584;-65
2022/05/23 13:41:10;;;;;;;1.52;0.98;;;34.10;33.40;;;;;;601487;236;26862;-65
2022/05/23 13:43:44;;;;;;;0.85;0.85;;;35.30;32.50;;;;;;606262;236;26606;-66
2022/05/23 13:46:11;;;;;;;0.70;0.70;;;37.20;29.50;;;;;;602017;237;26815;-65
2022/05/23 13:48:41;;;;;;;0.80;0.80;;;37.30;29.80;;;;;;601546;239;27227;-68
2022/05/23 13:51:10;;;;;;;0.90;0.88;;;36.00;29.60;;;;;;610902;235;26587;-68
2022/05/23 13:53:40;;;;;;;0.90;0.90;;;36.90;29.10;;;;;;603893;236;27236;-68
2022/05/23 13:56:07;;;;;;;1.05;0.95;;;36.60;29.80;;;;;;601777;237;26577;-68